sensor_id;sensor_type;location;lat;lon;timestamp;temperature;humidity
31309;DHT22;17936;52.446;10.840;2023-05-07T00:01:12;8.90;99.90
31309;DHT22;17936;52.446;10.840;2023-05-07T00:03:38;9.00;99.90
31309;DHT22;17936;52.446;10.840;2023-05-07T00:06:04;8.90;99.90
31309;DHT22;17936;52.446;10.840;2023-05-07T00:08:29;8.90;99.90
31309;DHT22;17936;52.446;10.840;2023-05-07T00:10:55;8.90;99.90
31309;DHT22;17936;52.446;10.840;2023-05-07T00:13:20;8.90;99.90
31309;DHT22;17936;52.446;10.840;2023-05-07T00:15:46;8.90;99.90
31309;DHT22;17936;52.446;10.840;2023-05-07T00:18:11;8.90;99.90
31309;DHT22;17936;52.446;10.840;2023-05-07T00:20:37;8.90;99.90
31309;DHT22;17936;52.446;10.840;2023-05-07T00:23:02;8.90;99.90
31309;DHT22;17936;52.446;10.840;2023-05-07T00:25:28;8.80;99.90
31309;DHT22;17936;52.446;10.840;2023-05-07T00:27:53;8.90;99.90
31309;DHT22;17936;52.446;10.840;2023-05-07T00:30:19;8.90;99.90
31309;DHT22;17936;52.446;10.840;2023-05-07T00:32:45;8.90;99.90
31309;DHT22;17936;52.446;10.840;2023-05-07T00:35:11;8.80;99.90
31309;DHT22;17936;52.446;10.840;2023-05-07T00:37:36;8.80;99.90
31309;DHT22;17936;52.446;10.840;2023-05-07T00:40:02;8.80;99.90
31309;DHT22;17936;52.446;10.840;2023-05-07T00:42:30;8.80;99.90
31309;DHT22;17936;52.446;10.840;2023-05-07T00:44:58;8.80;99.90
31309;DHT22;17936;52.446;10.840;2023-05-07T00:47:23;8.80;99.90
31309;DHT22;17936;52.446;10.840;2023-05-07T00:49:50;8.70;99.90
31309;DHT22;17936;52.446;10.840;2023-05-07T00:52:17;8.70;99.90
31309;DHT22;17936;52.446;10.840;2023-05-07T00:54:42;8.70;99.90
31309;DHT22;17936;52.446;10.840;2023-05-07T00:57:09;8.70;99.90
31309;DHT22;17936;52.446;10.840;2023-05-07T00:59:36;8.70;99.90
31309;DHT22;17936;52.446;10.840;2023-05-07T01:02:02;8.60;99.90
31309;DHT22;17936;52.446;10.840;2023-05-07T01:04:28;8.70;99.90
31309;DHT22;17936;52.446;10.840;2023-05-07T01:06:57;8.70;99.90
31309;DHT22;17936;52.446;10.840;2023-05-07T01:09:24;8.60;99.90
31309;DHT22;17936;52.446;10.840;2023-05-07T01:11:50;8.60;99.90
31309;DHT22;17936;52.446;10.840;2023-05-07T01:14:17;8.60;99.90
31309;DHT22;17936;52.446;10.840;2023-05-07T01:16:43;8.60;99.90
31309;DHT22;17936;52.446;10.840;2023-05-07T01:19:10;8.70;99.90
31309;DHT22;17936;52.446;10.840;2023-05-07T01:21:37;8.70;99.90
31309;DHT22;17936;52.446;10.840;2023-05-07T01:24:04;8.70;99.90
31309;DHT22;17936;52.446;10.840;2023-05-07T01:26:30;8.70;99.90
31309;DHT22;17936;52.446;10.840;2023-05-07T01:28:56;8.70;99.90
31309;DHT22;17936;52.446;10.840;2023-05-07T01:31:23;8.70;99.90
31309;DHT22;17936;52.446;10.840;2023-05-07T01:33:50;8.60;99.90
31309;DHT22;17936;52.446;10.840;2023-05-07T01:36:17;8.60;99.90
31309;DHT22;17936;52.446;10.840;2023-05-07T01:38:44;8.70;99.90
31309;DHT22;17936;52.446;10.840;2023-05-07T01:41:10;8.70;99.90
31309;DHT22;17936;52.446;10.840;2023-05-07T01:43:36;8.60;99.90
31309;DHT22;17936;52.446;10.840;2023-05-07T01:46:02;8.70;99.90
31309;DHT22;17936;52.446;10.840;2023-05-07T01:48:29;8.70;99.90
31309;DHT22;17936;52.446;10.840;2023-05-07T01:50:55;8.70;99.90
31309;DHT22;17936;52.446;10.840;2023-05-07T01:53:21;8.70;99.90
31309;DHT22;17936;52.446;10.840;2023-05-07T01:55:46;8.60;99.90
31309;DHT22;17936;52.446;10.840;2023-05-07T01:58:12;8.60;99.90
31309;DHT22;17936;52.446;10.840;2023-05-07T02:00:37;8.60;99.90
31309;DHT22;17936;52.446;10.840;2023-05-07T02:03:03;8.60;99.90
31309;DHT22;17936;52.446;10.840;2023-05-07T02:05:29;8.50;99.90
31309;DHT22;17936;52.446;10.840;2023-05-07T02:07:54;8.60;99.90
31309;DHT22;17936;52.446;10.840;2023-05-07T02:10:20;8.60;99.90
31309;DHT22;17936;52.446;10.840;2023-05-07T02:12:45;8.60;99.90
31309;DHT22;17936;52.446;10.840;2023-05-07T02:15:11;8.60;99.90
31309;DHT22;17936;52.446;10.840;2023-05-07T02:17:39;8.50;99.90
31309;DHT22;17936;52.446;10.840;2023-05-07T02:20:22;8.50;99.90
31309;DHT22;17936;52.446;10.840;2023-05-07T02:22:48;8.50;99.90
31309;DHT22;17936;52.446;10.840;2023-05-07T02:25:13;8.50;99.90
31309;DHT22;17936;52.446;10.840;2023-05-07T02:27:39;8.50;99.90
31309;DHT22;17936;52.446;10.840;2023-05-07T02:30:05;8.40;99.90
31309;DHT22;17936;52.446;10.840;2023-05-07T02:32:31;8.50;99.90
31309;DHT22;17936;52.446;10.840;2023-05-07T02:34:56;8.50;99.90
31309;DHT22;17936;52.446;10.840;2023-05-07T02:37:22;8.50;99.90
31309;DHT22;17936;52.446;10.840;2023-05-07T02:39:47;8.50;99.90
31309;DHT22;17936;52.446;10.840;2023-05-07T02:42:13;8.50;99.90
31309;DHT22;17936;52.446;10.840;2023-05-07T02:44:38;8.50;99.90
31309;DHT22;17936;52.446;10.840;2023-05-07T02:47:04;8.40;99.90
31309;DHT22;17936;52.446;10.840;2023-05-07T02:49:29;8.50;99.90
31309;DHT22;17936;52.446;10.840;2023-05-07T02:51:55;8.50;99.90
31309;DHT22;17936;52.446;10.840;2023-05-07T02:54:21;8.40;99.90
31309;DHT22;17936;52.446;10.840;2023-05-07T02:56:46;8.40;99.90
31309;DHT22;17936;52.446;10.840;2023-05-07T02:59:12;8.50;99.90
31309;DHT22;17936;52.446;10.840;2023-05-07T03:01:37;8.40;99.90
31309;DHT22;17936;52.446;10.840;2023-05-07T03:04:03;8.40;99.90
31309;DHT22;17936;52.446;10.840;2023-05-07T03:06:28;8.40;99.90
31309;DHT22;17936;52.446;10.840;2023-05-07T03:08:54;8.40;99.90
31309;DHT22;17936;52.446;10.840;2023-05-07T03:11:19;8.50;99.90
31309;DHT22;17936;52.446;10.840;2023-05-07T03:13:45;8.50;99.90
31309;DHT22;17936;52.446;10.840;2023-05-07T03:16:10;8.40;99.90
31309;DHT22;17936;52.446;10.840;2023-05-07T03:18:36;8.40;99.90
31309;DHT22;17936;52.446;10.840;2023-05-07T03:21:01;8.40;99.90
31309;DHT22;17936;52.446;10.840;2023-05-07T03:23:27;8.40;99.90
31309;DHT22;17936;52.446;10.840;2023-05-07T03:25:53;8.40;99.90
31309;DHT22;17936;52.446;10.840;2023-05-07T03:28:18;8.40;99.90
31309;DHT22;17936;52.446;10.840;2023-05-07T03:30:44;8.50;99.90
31309;DHT22;17936;52.446;10.840;2023-05-07T03:33:09;8.50;99.90
31309;DHT22;17936;52.446;10.840;2023-05-07T03:35:35;8.50;99.90
31309;DHT22;17936;52.446;10.840;2023-05-07T03:38:01;8.50;99.90
31309;DHT22;17936;52.446;10.840;2023-05-07T03:40:26;8.60;99.90
31309;DHT22;17936;52.446;10.840;2023-05-07T03:42:52;8.60;96.80
31309;DHT22;17936;52.446;10.840;2023-05-07T03:45:17;8.60;96.00
31309;DHT22;17936;52.446;10.840;2023-05-07T03:47:43;8.50;95.00
31309;DHT22;17936;52.446;10.840;2023-05-07T03:50:09;8.50;94.50
31309;DHT22;17936;52.446;10.840;2023-05-07T03:52:35;8.50;91.80
31309;DHT22;17936;52.446;10.840;2023-05-07T03:55:01;8.50;87.60
31309;DHT22;17936;52.446;10.840;2023-05-07T03:57:26;8.50;82.20
31309;DHT22;17936;52.446;10.840;2023-05-07T03:59:52;8.50;74.80
31309;DHT22;17936;52.446;10.840;2023-05-07T04:02:17;8.50;68.00
31309;DHT22;17936;52.446;10.840;2023-05-07T04:04:43;8.60;62.20
31309;DHT22;17936;52.446;10.840;2023-05-07T04:07:08;8.60;60.90
31309;DHT22;17936;52.446;10.840;2023-05-07T04:09:35;8.60;56.50
31309;DHT22;17936;52.446;10.840;2023-05-07T04:12:00;8.60;58.10
31309;DHT22;17936;52.446;10.840;2023-05-07T04:14:26;8.60;58.40
31309;DHT22;17936;52.446;10.840;2023-05-07T04:16:52;8.60;59.20
31309;DHT22;17936;52.446;10.840;2023-05-07T04:19:17;8.60;61.90
31309;DHT22;17936;52.446;10.840;2023-05-07T04:21:43;8.60;65.70
31309;DHT22;17936;52.446;10.840;2023-05-07T04:24:08;8.60;68.10
31309;DHT22;17936;52.446;10.840;2023-05-07T04:26:34;8.60;71.20
31309;DHT22;17936;52.446;10.840;2023-05-07T04:29:00;8.60;74.60
31309;DHT22;17936;52.446;10.840;2023-05-07T04:31:25;8.60;75.80
31309;DHT22;17936;52.446;10.840;2023-05-07T04:33:51;8.60;80.10
31309;DHT22;17936;52.446;10.840;2023-05-07T04:36:16;8.60;84.20
31309;DHT22;17936;52.446;10.840;2023-05-07T04:38:42;8.50;82.30
31309;DHT22;17936;52.446;10.840;2023-05-07T04:41:08;8.50;81.60
31309;DHT22;17936;52.446;10.840;2023-05-07T04:43:34;8.50;77.40
31309;DHT22;17936;52.446;10.840;2023-05-07T04:46:00;8.60;86.00
31309;DHT22;17936;52.446;10.840;2023-05-07T04:48:25;8.60;91.50
31309;DHT22;17936;52.446;10.840;2023-05-07T04:50:52;8.60;95.50
31309;DHT22;17936;52.446;10.840;2023-05-07T04:53:18;8.60;93.20
31309;DHT22;17936;52.446;10.840;2023-05-07T04:55:44;8.60;93.20
31309;DHT22;17936;52.446;10.840;2023-05-07T04:58:11;8.50;95.30
31309;DHT22;17936;52.446;10.840;2023-05-07T05:00:36;8.60;96.30
31309;DHT22;17936;52.446;10.840;2023-05-07T05:03:02;8.60;96.70
31309;DHT22;17936;52.446;10.840;2023-05-07T05:05:27;8.60;96.50
31309;DHT22;17936;52.446;10.840;2023-05-07T05:07:53;8.60;97.00
31309;DHT22;17936;52.446;10.840;2023-05-07T05:10:18;8.60;98.70
31309;DHT22;17936;52.446;10.840;2023-05-07T05:12:44;8.60;99.90
31309;DHT22;17936;52.446;10.840;2023-05-07T05:15:11;8.60;99.80
31309;DHT22;17936;52.446;10.840;2023-05-07T05:17:37;8.60;98.20
31309;DHT22;17936;52.446;10.840;2023-05-07T05:20:03;8.60;96.20
31309;DHT22;17936;52.446;10.840;2023-05-07T05:22:29;8.60;94.80
31309;DHT22;17936;52.446;10.840;2023-05-07T05:24:56;8.60;93.60
31309;DHT22;17936;52.446;10.840;2023-05-07T05:27:21;8.70;94.50
31309;DHT22;17936;52.446;10.840;2023-05-07T05:29:47;8.70;95.60
31309;DHT22;17936;52.446;10.840;2023-05-07T05:32:12;8.70;95.60
31309;DHT22;17936;52.446;10.840;2023-05-07T05:34:38;8.80;96.40
31309;DHT22;17936;52.446;10.840;2023-05-07T05:37:04;8.70;97.10
31309;DHT22;17936;52.446;10.840;2023-05-07T05:39:29;8.70;98.30
31309;DHT22;17936;52.446;10.840;2023-05-07T05:41:55;8.70;98.70
31309;DHT22;17936;52.446;10.840;2023-05-07T05:44:20;8.70;98.70
31309;DHT22;17936;52.446;10.840;2023-05-07T05:46:46;8.70;99.90
31309;DHT22;17936;52.446;10.840;2023-05-07T05:49:11;8.80;99.90
31309;DHT22;17936;52.446;10.840;2023-05-07T05:51:37;8.80;99.90
31309;DHT22;17936;52.446;10.840;2023-05-07T05:54:02;8.80;99.90
31309;DHT22;17936;52.446;10.840;2023-05-07T05:56:28;8.70;98.40
31309;DHT22;17936;52.446;10.840;2023-05-07T05:58:54;8.70;99.90
31309;DHT22;17936;52.446;10.840;2023-05-07T06:01:19;8.70;99.10
31309;DHT22;17936;52.446;10.840;2023-05-07T06:03:45;8.70;97.00
31309;DHT22;17936;52.446;10.840;2023-05-07T06:06:10;8.80;97.40
31309;DHT22;17936;52.446;10.840;2023-05-07T06:08:36;8.80;93.60
31309;DHT22;17936;52.446;10.840;2023-05-07T06:11:02;8.80;90.50
31309;DHT22;17936;52.446;10.840;2023-05-07T06:13:28;8.80;91.20
31309;DHT22;17936;52.446;10.840;2023-05-07T06:15:53;8.70;80.40
31309;DHT22;17936;52.446;10.840;2023-05-07T06:18:19;8.80;78.30
31309;DHT22;17936;52.446;10.840;2023-05-07T06:20:44;8.80;74.00
31309;DHT22;17936;52.446;10.840;2023-05-07T06:23:10;8.80;66.30
31309;DHT22;17936;52.446;10.840;2023-05-07T06:25:35;8.70;63.70
31309;DHT22;17936;52.446;10.840;2023-05-07T06:28:01;8.80;54.60
31309;DHT22;17936;52.446;10.840;2023-05-07T06:30:27;8.80;56.60
31309;DHT22;17936;52.446;10.840;2023-05-07T06:32:53;8.80;47.30
31309;DHT22;17936;52.446;10.840;2023-05-07T06:35:18;8.80;42.20
31309;DHT22;17936;52.446;10.840;2023-05-07T06:37:44;8.80;36.60
31309;DHT22;17936;52.446;10.840;2023-05-07T06:40:10;8.80;34.30
31309;DHT22;17936;52.446;10.840;2023-05-07T06:42:36;8.90;31.00
31309;DHT22;17936;52.446;10.840;2023-05-07T06:45:02;8.90;30.70
31309;DHT22;17936;52.446;10.840;2023-05-07T06:47:28;8.90;24.60
31309;DHT22;17936;52.446;10.840;2023-05-07T06:49:53;8.90;22.20
31309;DHT22;17936;52.446;10.840;2023-05-07T06:52:19;9.00;26.70
31309;DHT22;17936;52.446;10.840;2023-05-07T06:54:44;8.90;27.00
31309;DHT22;17936;52.446;10.840;2023-05-07T06:57:10;9.00;30.00
31309;DHT22;17936;52.446;10.840;2023-05-07T06:59:35;9.00;26.10
31309;DHT22;17936;52.446;10.840;2023-05-07T07:02:01;8.90;29.10
31309;DHT22;17936;52.446;10.840;2023-05-07T07:04:26;9.00;29.30
31309;DHT22;17936;52.446;10.840;2023-05-07T07:06:53;9.10;25.40
31309;DHT22;17936;52.446;10.840;2023-05-07T07:09:19;9.00;28.20
31309;DHT22;17936;52.446;10.840;2023-05-07T07:11:44;9.10;31.30
31309;DHT22;17936;52.446;10.840;2023-05-07T07:14:10;9.00;39.00
31309;DHT22;17936;52.446;10.840;2023-05-07T07:16:35;9.20;46.30
31309;DHT22;17936;52.446;10.840;2023-05-07T07:19:01;9.10;39.90
31309;DHT22;17936;52.446;10.840;2023-05-07T07:21:26;9.10;51.30
31309;DHT22;17936;52.446;10.840;2023-05-07T07:23:52;9.30;47.50
31309;DHT22;17936;52.446;10.840;2023-05-07T07:26:17;9.30;37.60
31309;DHT22;17936;52.446;10.840;2023-05-07T07:28:46;9.40;34.90
31309;DHT22;17936;52.446;10.840;2023-05-07T07:31:12;9.40;12.00
31309;DHT22;17936;52.446;10.840;2023-05-07T07:33:38;9.30;8.00
31309;DHT22;17936;52.446;10.840;2023-05-07T07:36:05;9.30;1.00
31309;DHT22;17936;52.446;10.840;2023-05-07T07:38:31;9.40;1.00
31309;DHT22;17936;52.446;10.840;2023-05-07T07:40:56;9.40;1.00
31309;DHT22;17936;52.446;10.840;2023-05-07T07:43:22;9.40;1.00
31309;DHT22;17936;52.446;10.840;2023-05-07T07:45:47;9.50;1.00
31309;DHT22;17936;52.446;10.840;2023-05-07T07:48:13;9.60;1.00
31309;DHT22;17936;52.446;10.840;2023-05-07T07:50:38;9.50;1.00
31309;DHT22;17936;52.446;10.840;2023-05-07T07:53:04;9.70;1.00
31309;DHT22;17936;52.446;10.840;2023-05-07T07:55:29;9.70;1.00
31309;DHT22;17936;52.446;10.840;2023-05-07T07:57:56;9.60;1.00
31309;DHT22;17936;52.446;10.840;2023-05-07T08:00:21;9.70;1.00
31309;DHT22;17936;52.446;10.840;2023-05-07T08:02:47;9.70;1.00
31309;DHT22;17936;52.446;10.840;2023-05-07T08:05:12;9.70;1.00
31309;DHT22;17936;52.446;10.840;2023-05-07T08:07:38;9.60;99.90
31309;DHT22;17936;52.446;10.840;2023-05-07T08:10:04;9.70;99.90
31309;DHT22;17936;52.446;10.840;2023-05-07T08:12:29;9.70;1.00
31309;DHT22;17936;52.446;10.840;2023-05-07T08:14:55;9.70;1.00
31309;DHT22;17936;52.446;10.840;2023-05-07T08:17:20;9.80;1.00
31309;DHT22;17936;52.446;10.840;2023-05-07T08:19:48;9.80;99.90
31309;DHT22;17936;52.446;10.840;2023-05-07T08:22:13;9.80;99.90
31309;DHT22;17936;52.446;10.840;2023-05-07T08:24:39;9.80;99.90
31309;DHT22;17936;52.446;10.840;2023-05-07T08:27:05;9.80;99.90
31309;DHT22;17936;52.446;10.840;2023-05-07T08:29:30;9.80;99.90
31309;DHT22;17936;52.446;10.840;2023-05-07T08:31:56;10.00;99.90
31309;DHT22;17936;52.446;10.840;2023-05-07T08:34:22;10.10;99.90
31309;DHT22;17936;52.446;10.840;2023-05-07T08:36:48;10.00;99.90
31309;DHT22;17936;52.446;10.840;2023-05-07T08:39:17;10.10;99.90
31309;DHT22;17936;52.446;10.840;2023-05-07T08:41:45;10.00;99.90
31309;DHT22;17936;52.446;10.840;2023-05-07T08:44:13;10.20;99.90
31309;DHT22;17936;52.446;10.840;2023-05-07T08:46:42;10.20;99.90
31309;DHT22;17936;52.446;10.840;2023-05-07T08:49:11;10.30;99.90
31309;DHT22;17936;52.446;10.840;2023-05-07T08:51:37;10.20;99.90
31309;DHT22;17936;52.446;10.840;2023-05-07T08:54:03;10.30;99.90
31309;DHT22;17936;52.446;10.840;2023-05-07T08:56:30;10.20;99.90
31309;DHT22;17936;52.446;10.840;2023-05-07T08:58:55;10.10;99.90
31309;DHT22;17936;52.446;10.840;2023-05-07T09:01:24;10.00;99.90
31309;DHT22;17936;52.446;10.840;2023-05-07T09:03:50;10.20;99.90
31309;DHT22;17936;52.446;10.840;2023-05-07T09:06:17;10.20;99.90
31309;DHT22;17936;52.446;10.840;2023-05-07T09:08:52;10.30;99.90
31309;DHT22;17936;52.446;10.840;2023-05-07T09:11:22;10.40;99.90
31309;DHT22;17936;52.446;10.840;2023-05-07T09:13:48;10.20;99.90
31309;DHT22;17936;52.446;10.840;2023-05-07T09:16:14;10.30;99.90
31309;DHT22;17936;52.446;10.840;2023-05-07T09:18:44;10.40;99.90
31309;DHT22;17936;52.446;10.840;2023-05-07T09:21:11;10.60;99.90
31309;DHT22;17936;52.446;10.840;2023-05-07T09:23:37;10.70;61.10
31309;DHT22;17936;52.446;10.840;2023-05-07T09:26:02;10.50;92.80
31309;DHT22;17936;52.446;10.840;2023-05-07T09:28:29;10.30;60.90
31309;DHT22;17936;52.446;10.840;2023-05-07T09:30:55;10.40;99.90
31309;DHT22;17936;52.446;10.840;2023-05-07T09:33:21;10.50;99.90
31309;DHT22;17936;52.446;10.840;2023-05-07T09:35:50;10.60;99.90
31309;DHT22;17936;52.446;10.840;2023-05-07T09:38:18;10.50;99.90
31309;DHT22;17936;52.446;10.840;2023-05-07T09:40:44;10.40;99.90
31309;DHT22;17936;52.446;10.840;2023-05-07T09:43:11;10.50;99.90
31309;DHT22;17936;52.446;10.840;2023-05-07T09:45:37;10.40;99.90
31309;DHT22;17936;52.446;10.840;2023-05-07T09:48:05;10.50;99.90
31309;DHT22;17936;52.446;10.840;2023-05-07T09:50:36;10.50;99.90
31309;DHT22;17936;52.446;10.840;2023-05-07T09:53:06;10.60;99.90
31309;DHT22;17936;52.446;10.840;2023-05-07T09:55:32;10.50;99.90
31309;DHT22;17936;52.446;10.840;2023-05-07T09:57:58;10.50;99.90
31309;DHT22;17936;52.446;10.840;2023-05-07T10:00:25;10.30;99.90
31309;DHT22;17936;52.446;10.840;2023-05-07T10:02:52;10.40;99.90
31309;DHT22;17936;52.446;10.840;2023-05-07T10:05:19;10.40;99.90
31309;DHT22;17936;52.446;10.840;2023-05-07T10:07:48;10.50;99.90
31309;DHT22;17936;52.446;10.840;2023-05-07T10:10:14;10.50;99.90
31309;DHT22;17936;52.446;10.840;2023-05-07T10:12:41;10.70;20.90
31309;DHT22;17936;52.446;10.840;2023-05-07T10:15:10;10.70;99.90
31309;DHT22;17936;52.446;10.840;2023-05-07T10:17:37;10.70;99.90
31309;DHT22;17936;52.446;10.840;2023-05-07T10:20:04;10.80;99.90
31309;DHT22;17936;52.446;10.840;2023-05-07T10:22:43;10.60;99.90
31309;DHT22;17936;52.446;10.840;2023-05-07T10:25:25;10.70;99.90
31309;DHT22;17936;52.446;10.840;2023-05-07T10:27:55;10.80;99.90
31309;DHT22;17936;52.446;10.840;2023-05-07T10:31:04;11.00;99.90
31309;DHT22;17936;52.446;10.840;2023-05-07T10:33:33;11.10;99.90
31309;DHT22;17936;52.446;10.840;2023-05-07T10:36:01;10.90;99.90
31309;DHT22;17936;52.446;10.840;2023-05-07T10:38:29;11.00;99.90
31309;DHT22;17936;52.446;10.840;2023-05-07T10:40:55;10.80;99.90
31309;DHT22;17936;52.446;10.840;2023-05-07T10:43:21;10.70;99.90
31309;DHT22;17936;52.446;10.840;2023-05-07T10:46:09;10.80;99.90
31309;DHT22;17936;52.446;10.840;2023-05-07T10:51:31;11.00;1.00
31309;DHT22;17936;52.446;10.840;2023-05-07T10:54:21;11.10;1.00
31309;DHT22;17936;52.446;10.840;2023-05-07T10:56:47;10.80;99.90
31309;DHT22;17936;52.446;10.840;2023-05-07T11:02:02;11.00;99.90
31309;DHT22;17936;52.446;10.840;2023-05-07T11:04:29;11.00;1.00
31309;DHT22;17936;52.446;10.840;2023-05-07T11:15:10;11.40;99.90
31309;DHT22;17936;52.446;10.840;2023-05-07T11:17:56;11.40;99.90
31309;DHT22;17936;52.446;10.840;2023-05-07T11:26:07;11.90;99.90
31309;DHT22;17936;52.446;10.840;2023-05-07T11:28:40;12.10;89.40
31309;DHT22;17936;52.446;10.840;2023-05-07T11:31:07;11.90;99.90
31309;DHT22;17936;52.446;10.840;2023-05-07T11:33:33;11.90;99.90
31309;DHT22;17936;52.446;10.840;2023-05-07T11:36:03;11.90;99.90
31309;DHT22;17936;52.446;10.840;2023-05-07T11:38:36;12.10;99.90
31309;DHT22;17936;52.446;10.840;2023-05-07T11:41:02;12.10;1.00
31309;DHT22;17936;52.446;10.840;2023-05-07T11:43:30;12.00;99.90
31309;DHT22;17936;52.446;10.840;2023-05-07T11:46:05;12.10;99.90
31309;DHT22;17936;52.446;10.840;2023-05-07T11:48:31;12.10;20.00
31309;DHT22;17936;52.446;10.840;2023-05-07T11:51:05;12.10;98.60
31309;DHT22;17936;52.446;10.840;2023-05-07T11:53:38;12.10;1.00
31309;DHT22;17936;52.446;10.840;2023-05-07T11:56:12;12.00;17.40
31309;DHT22;17936;52.446;10.840;2023-05-07T11:58:37;12.10;99.90
31309;DHT22;17936;52.446;10.840;2023-05-07T12:01:03;12.20;99.90
31309;DHT22;17936;52.446;10.840;2023-05-07T12:03:29;12.30;99.90
31309;DHT22;17936;52.446;10.840;2023-05-07T12:05:54;12.20;99.90
31309;DHT22;17936;52.446;10.840;2023-05-07T12:08:21;12.10;99.90
31309;DHT22;17936;52.446;10.840;2023-05-07T12:10:49;12.20;99.90
31309;DHT22;17936;52.446;10.840;2023-05-07T12:13:16;12.20;99.90
31309;DHT22;17936;52.446;10.840;2023-05-07T12:15:42;12.10;99.90
31309;DHT22;17936;52.446;10.840;2023-05-07T12:18:08;12.30;57.00
31309;DHT22;17936;52.446;10.840;2023-05-07T12:20:35;12.30;10.70
31309;DHT22;17936;52.446;10.840;2023-05-07T12:23:01;12.30;99.90
31309;DHT22;17936;52.446;10.840;2023-05-07T12:25:30;12.30;99.90
31309;DHT22;17936;52.446;10.840;2023-05-07T12:27:56;12.40;99.90
31309;DHT22;17936;52.446;10.840;2023-05-07T12:30:24;12.30;99.90
31309;DHT22;17936;52.446;10.840;2023-05-07T12:32:53;12.30;99.90
31309;DHT22;17936;52.446;10.840;2023-05-07T12:35:29;12.30;99.90
31309;DHT22;17936;52.446;10.840;2023-05-07T12:37:56;12.30;99.90
31309;DHT22;17936;52.446;10.840;2023-05-07T12:40:21;12.50;99.90
31309;DHT22;17936;52.446;10.840;2023-05-07T12:42:52;13.10;99.90
31309;DHT22;17936;52.446;10.840;2023-05-07T12:45:19;13.80;99.90
31309;DHT22;17936;52.446;10.840;2023-05-07T12:47:46;14.70;99.90
31309;DHT22;17936;52.446;10.840;2023-05-07T12:50:13;14.10;90.90
31309;DHT22;17936;52.446;10.840;2023-05-07T12:52:39;14.20;82.00
31309;DHT22;17936;52.446;10.840;2023-05-07T12:55:07;14.20;53.80
31309;DHT22;17936;52.446;10.840;2023-05-07T12:57:43;14.20;27.30
31309;DHT22;17936;52.446;10.840;2023-05-07T13:00:09;14.90;14.80
31309;DHT22;17936;52.446;10.840;2023-05-07T13:02:38;14.90;1.00
31309;DHT22;17936;52.446;10.840;2023-05-07T13:05:04;14.60;99.90
31309;DHT22;17936;52.446;10.840;2023-05-07T13:07:30;14.40;99.90
31309;DHT22;17936;52.446;10.840;2023-05-07T13:09:56;14.10;99.90
31309;DHT22;17936;52.446;10.840;2023-05-07T13:12:21;14.60;99.90
31309;DHT22;17936;52.446;10.840;2023-05-07T13:14:47;15.10;99.90
31309;DHT22;17936;52.446;10.840;2023-05-07T13:17:12;14.80;99.90
31309;DHT22;17936;52.446;10.840;2023-05-07T13:19:37;14.70;99.90
31309;DHT22;17936;52.446;10.840;2023-05-07T13:22:03;14.60;99.90
31309;DHT22;17936;52.446;10.840;2023-05-07T13:24:29;14.30;99.90
31309;DHT22;17936;52.446;10.840;2023-05-07T13:26:54;14.60;99.90
31309;DHT22;17936;52.446;10.840;2023-05-07T13:29:20;14.50;99.90
31309;DHT22;17936;52.446;10.840;2023-05-07T13:31:50;15.00;99.90
31309;DHT22;17936;52.446;10.840;2023-05-07T13:34:16;14.20;99.90
31309;DHT22;17936;52.446;10.840;2023-05-07T13:36:41;14.80;99.90
31309;DHT22;17936;52.446;10.840;2023-05-07T13:39:07;14.80;99.90
31309;DHT22;17936;52.446;10.840;2023-05-07T13:41:33;14.70;99.90
31309;DHT22;17936;52.446;10.840;2023-05-07T13:43:58;14.20;99.90
31309;DHT22;17936;52.446;10.840;2023-05-07T13:46:23;14.60;99.90
31309;DHT22;17936;52.446;10.840;2023-05-07T13:48:49;14.40;99.90
31309;DHT22;17936;52.446;10.840;2023-05-07T13:51:16;14.30;99.90
31309;DHT22;17936;52.446;10.840;2023-05-07T13:53:42;14.10;99.90
31309;DHT22;17936;52.446;10.840;2023-05-07T13:56:07;14.50;99.90
31309;DHT22;17936;52.446;10.840;2023-05-07T13:58:33;14.50;99.90
31309;DHT22;17936;52.446;10.840;2023-05-07T14:00:58;14.40;99.90
31309;DHT22;17936;52.446;10.840;2023-05-07T14:03:24;14.70;99.90
31309;DHT22;17936;52.446;10.840;2023-05-07T14:05:49;14.90;99.90
31309;DHT22;17936;52.446;10.840;2023-05-07T14:08:15;14.30;99.90
31309;DHT22;17936;52.446;10.840;2023-05-07T14:10:40;14.20;99.90
31309;DHT22;17936;52.446;10.840;2023-05-07T14:13:06;14.40;99.90
31309;DHT22;17936;52.446;10.840;2023-05-07T14:15:31;14.60;99.90
31309;DHT22;17936;52.446;10.840;2023-05-07T14:18:00;14.60;99.90
31309;DHT22;17936;52.446;10.840;2023-05-07T14:20:26;14.50;99.90
31309;DHT22;17936;52.446;10.840;2023-05-07T14:22:51;14.40;99.90
31309;DHT22;17936;52.446;10.840;2023-05-07T14:25:17;14.20;99.90
31309;DHT22;17936;52.446;10.840;2023-05-07T14:27:42;14.20;99.90
31309;DHT22;17936;52.446;10.840;2023-05-07T14:30:08;14.30;99.90
31309;DHT22;17936;52.446;10.840;2023-05-07T14:32:34;14.20;99.90
31309;DHT22;17936;52.446;10.840;2023-05-07T14:35:00;14.50;99.90
31309;DHT22;17936;52.446;10.840;2023-05-07T14:37:25;15.10;99.90
31309;DHT22;17936;52.446;10.840;2023-05-07T14:39:51;15.10;99.90
31309;DHT22;17936;52.446;10.840;2023-05-07T14:42:17;14.70;99.90
31309;DHT22;17936;52.446;10.840;2023-05-07T14:44:42;14.40;99.90
31309;DHT22;17936;52.446;10.840;2023-05-07T14:47:09;14.60;99.90
31309;DHT22;17936;52.446;10.840;2023-05-07T14:49:35;15.10;99.90
31309;DHT22;17936;52.446;10.840;2023-05-07T14:52:01;14.90;99.90
31309;DHT22;17936;52.446;10.840;2023-05-07T14:54:26;15.10;99.90
31309;DHT22;17936;52.446;10.840;2023-05-07T14:56:52;15.10;99.90
31309;DHT22;17936;52.446;10.840;2023-05-07T14:59:18;15.20;99.90
31309;DHT22;17936;52.446;10.840;2023-05-07T15:01:46;15.00;99.90
31309;DHT22;17936;52.446;10.840;2023-05-07T15:04:12;15.40;99.90
31309;DHT22;17936;52.446;10.840;2023-05-07T15:06:38;15.70;99.90
31309;DHT22;17936;52.446;10.840;2023-05-07T15:09:04;16.00;99.90
31309;DHT22;17936;52.446;10.840;2023-05-07T15:11:29;15.20;99.90
31309;DHT22;17936;52.446;10.840;2023-05-07T15:13:55;14.80;99.90
31309;DHT22;17936;52.446;10.840;2023-05-07T15:16:21;14.80;99.90
31309;DHT22;17936;52.446;10.840;2023-05-07T15:18:48;14.80;99.90
31309;DHT22;17936;52.446;10.840;2023-05-07T15:21:14;14.60;99.90
31309;DHT22;17936;52.446;10.840;2023-05-07T15:23:39;14.60;99.90
31309;DHT22;17936;52.446;10.840;2023-05-07T15:26:06;14.40;99.90
31309;DHT22;17936;52.446;10.840;2023-05-07T15:28:33;14.50;99.90
31309;DHT22;17936;52.446;10.840;2023-05-07T15:30:59;14.80;99.90
31309;DHT22;17936;52.446;10.840;2023-05-07T15:33:24;14.70;99.90
31309;DHT22;17936;52.446;10.840;2023-05-07T15:35:50;14.30;99.90
31309;DHT22;17936;52.446;10.840;2023-05-07T15:38:15;14.10;99.90
31309;DHT22;17936;52.446;10.840;2023-05-07T15:40:41;14.00;99.90